Time;durP1;ratioP1;P1;durP2;ratioP2;P2;SDS_P1;SDS_P2;PMS_P1;PMS_P2;Temp;Humidity;BMP_temperature;BMP_pressure;BME280_temperature;BME280_humidity;BME280_pressure;Samples;Min_cycle;Max_cycle;Signal;HPM_P1;HPM_P2
2023/07/22 00:01:58;;;;;;;1.95;0.85;;;27.70;69.20;;;;;;4833392;29;20211;-85
2023/07/22 00:04:27;;;;;;;0.30;0.30;;;27.70;69.30;;;;;;4838669;29;20202;-85
2023/07/22 00:06:56;;;;;;;0.70;0.43;;;27.70;69.80;;;;;;4838086;29;20672;-84
2023/07/22 00:09:24;;;;;;;0.20;0.20;;;27.70;69.40;;;;;;4836679;29;20596;-85
2023/07/22 00:11:52;;;;;;;0.70;0.50;;;27.70;69.40;;;;;;4840039;29;20234;-83
2023/07/22 00:14:21;;;;;;;0.38;0.38;;;27.70;69.10;;;;;;4837894;29;20215;-83
2023/07/22 00:16:51;;;;;;;0.43;0.30;;;27.70;69.10;;;;;;4835232;29;20264;-84
2023/07/22 00:19:19;;;;;;;2.40;1.65;;;27.60;69.00;;;;;;4838580;29;20207;-83
2023/07/22 00:21:49;;;;;;;2.00;1.07;;;27.50;70.40;;;;;;4836475;29;20457;-82
2023/07/22 00:24:17;;;;;;;0.43;0.38;;;27.50;71.00;;;;;;4836068;29;20450;-84
2023/07/22 00:26:46;;;;;;;6.57;0.68;;;27.50;70.80;;;;;;4836343;29;20289;-84
2023/07/22 00:29:14;;;;;;;7.45;0.70;;;27.40;70.30;;;;;;4834147;29;20214;-83
2023/07/22 00:31:43;;;;;;;28.30;1.95;;;27.40;71.30;;;;;;4839165;29;20226;-82
2023/07/22 00:34:13;;;;;;;0.15;0.15;;;27.40;77.70;;;;;;4840297;29;20202;-84
2023/07/22 00:36:41;;;;;;;0.40;0.22;;;27.20;77.80;;;;;;4832663;29;20213;-83
2023/07/22 00:39:09;;;;;;;0.20;0.20;;;27.00;80.50;;;;;;4841847;29;20202;-85
2023/07/22 00:41:38;;;;;;;0.30;0.30;;;26.80;81.30;;;;;;4840648;29;20213;-84
2023/07/22 00:44:06;;;;;;;1.75;0.30;;;26.60;82.00;;;;;;4841048;29;20210;-83
2023/07/22 00:46:34;;;;;;;0.55;0.55;;;26.30;83.70;;;;;;4839760;29;20205;-83
2023/07/22 00:49:03;;;;;;;0.20;0.20;;;26.20;83.60;;;;;;4839968;29;20217;-86
2023/07/22 00:51:33;;;;;;;0.80;0.40;;;26.10;84.10;;;;;;4838632;29;20202;-84
2023/07/22 00:54:03;;;;;;;0.30;0.30;;;25.90;83.90;;;;;;4837539;29;20275;-84
2023/07/22 00:56:36;;;;;;;0.15;0.15;;;25.80;84.00;;;;;;4838439;29;20210;-84
2023/07/22 00:59:05;;;;;;;0.52;0.30;;;25.80;84.70;;;;;;4840317;29;20611;-83
2023/07/22 01:01:34;;;;;;;0.10;0.10;;;25.60;85.10;;;;;;4836079;29;20604;-84
2023/07/22 01:04:04;;;;;;;0.65;0.65;;;25.60;85.80;;;;;;4830319;29;20210;-82
2023/07/22 01:06:36;;;;;;;0.68;0.60;;;25.40;86.00;;;;;;4839947;29;20579;-83
2023/07/22 01:09:09;;;;;;;0.10;0.10;;;25.40;87.00;;;;;;4838206;29;20276;-83
2023/07/22 01:11:37;;;;;;;0.20;0.20;;;25.30;86.70;;;;;;4836731;29;20203;-84
2023/07/22 01:14:06;;;;;;;0.30;0.30;;;25.20;86.90;;;;;;4839094;29;20203;-83
2023/07/22 01:16:34;;;;;;;0.20;0.20;;;25.10;87.70;;;;;;4833141;29;20203;-83
2023/07/22 01:19:04;;;;;;;0.40;0.38;;;25.10;87.10;;;;;;4836154;29;20659;-82
2023/07/22 01:21:35;;;;;;;0.30;0.30;;;25.00;87.30;;;;;;4838222;29;20195;-84
2023/07/22 01:24:06;;;;;;;0.40;0.40;;;25.00;88.60;;;;;;4839492;29;20206;-82
2023/07/22 01:26:34;;;;;;;0.95;0.73;;;24.90;88.10;;;;;;4836939;29;20241;-83
2023/07/22 01:29:06;;;;;;;2.55;0.90;;;24.80;89.20;;;;;;4831277;29;20199;-83
2023/07/22 01:31:36;;;;;;;0.10;0.10;;;24.80;89.10;;;;;;4831737;29;20246;-82
2023/07/22 01:34:05;;;;;;;1.23;1.05;;;24.80;89.80;;;;;;4834112;29;20309;-83
2023/07/22 01:36:34;;;;;;;0.22;0.22;;;24.70;89.50;;;;;;4840370;29;20207;-83
2023/07/22 01:39:05;;;;;;;0.40;0.30;;;24.60;89.90;;;;;;4838494;29;20202;-81
2023/07/22 01:41:34;;;;;;;0.10;0.10;;;24.60;89.50;;;;;;4836659;29;20293;-83
2023/07/22 01:44:02;;;;;;;0.10;0.10;;;24.60;90.10;;;;;;4839054;29;20218;-82
2023/07/22 01:46:30;;;;;;;0.45;0.45;;;24.50;90.30;;;;;;4831876;29;20273;-83
2023/07/22 01:48:59;;;;;;;0.20;0.20;;;24.50;90.70;;;;;;4838869;29;20202;-82
2023/07/22 01:51:27;;;;;;;0.10;0.10;;;24.40;90.70;;;;;;4839436;29;20202;-82
2023/07/22 01:53:56;;;;;;;0.17;0.17;;;24.40;90.40;;;;;;4835584;29;20699;-84
2023/07/22 01:56:26;;;;;;;0.40;0.40;;;24.40;90.40;;;;;;4840308;29;20916;-84
2023/07/22 01:58:55;;;;;;;0.20;0.20;;;24.40;90.40;;;;;;4838755;29;20286;-82
2023/07/22 02:01:24;;;;;;;0.20;0.20;;;24.40;91.20;;;;;;4836014;29;20209;-84
2023/07/22 02:03:52;;;;;;;0.10;0.10;;;24.30;90.90;;;;;;4838341;29;20214;-84
2023/07/22 02:06:21;;;;;;;0.10;0.10;;;24.30;91.20;;;;;;4839732;29;20563;-82
2023/07/22 02:08:49;;;;;;;0.10;0.10;;;24.30;91.40;;;;;;4832321;29;20295;-84
2023/07/22 02:11:18;;;;;;;0.22;0.22;;;24.30;91.40;;;;;;4836477;29;20195;-83
2023/07/22 02:13:48;;;;;;;0.77;0.20;;;24.30;91.40;;;;;;4834139;29;20237;-84
2023/07/22 02:16:17;;;;;;;0.65;0.55;;;24.20;91.30;;;;;;4835879;29;20213;-82
2023/07/22 02:18:45;;;;;;;0.15;0.15;;;24.20;91.50;;;;;;4836785;29;20274;-83
2023/07/22 02:21:14;;;;;;;0.30;0.30;;;24.20;91.30;;;;;;4833415;29;20208;-84
2023/07/22 02:23:42;;;;;;;0.40;0.40;;;24.20;91.30;;;;;;4833861;29;20225;-82
2023/07/22 02:26:10;;;;;;;0.10;0.10;;;24.20;91.20;;;;;;4840563;29;20565;-84
2023/07/22 02:28:39;;;;;;;0.20;0.20;;;24.20;91.10;;;;;;4838862;29;20578;-84
2023/07/22 02:31:09;;;;;;;4.03;0.40;;;24.20;90.90;;;;;;4833815;29;20322;-83
2023/07/22 02:33:37;;;;;;;0.20;0.20;;;24.20;91.00;;;;;;4834599;29;20218;-83
2023/07/22 02:36:06;;;;;;;0.20;0.20;;;24.20;90.80;;;;;;4839411;29;20194;-82
2023/07/22 02:38:34;;;;;;;0.10;0.10;;;24.20;91.00;;;;;;4830745;29;20203;-83
2023/07/22 02:41:06;;;;;;;0.20;0.20;;;24.20;91.00;;;;;;4838796;29;20203;-84
2023/07/22 02:43:34;;;;;;;2.08;0.35;;;24.20;91.00;;;;;;4839430;29;20205;-83
2023/07/22 02:46:03;;;;;;;0.13;0.13;;;24.20;90.80;;;;;;4839095;29;20214;-81
2023/07/22 02:48:34;;;;;;;0.10;0.10;;;24.20;91.10;;;;;;4826693;29;20223;-82
2023/07/22 02:51:05;;;;;;;0.20;0.20;;;24.30;91.80;;;;;;4833435;29;20712;-83
2023/07/22 02:53:33;;;;;;;0.20;0.20;;;24.20;91.60;;;;;;4828528;29;20622;-82
2023/07/22 02:56:02;;;;;;;1.90;1.15;;;24.20;91.40;;;;;;4834007;29;20199;-83
2023/07/22 02:58:31;;;;;;;0.10;0.10;;;24.20;91.60;;;;;;4829790;29;20203;-82
2023/07/22 03:00:59;;;;;;;0.40;0.30;;;24.20;92.10;;;;;;4831517;29;20228;-81
2023/07/22 03:03:29;;;;;;;0.20;0.20;;;24.20;92.60;;;;;;4834492;29;20202;-82
2023/07/22 03:05:59;;;;;;;0.45;0.30;;;24.20;92.70;;;;;;4839590;29;20206;-82
2023/07/22 03:08:28;;;;;;;4.82;1.38;;;24.20;92.60;;;;;;4833615;29;20286;-81
2023/07/22 03:10:57;;;;;;;0.20;0.20;;;24.20;92.90;;;;;;4836741;29;20194;-81
2023/07/22 03:13:29;;;;;;;0.20;0.20;;;24.20;93.20;;;;;;4836031;29;20229;-83
2023/07/22 03:15:59;;;;;;;1.30;1.05;;;24.10;93.40;;;;;;4832033;29;20202;-84
2023/07/22 03:18:27;;;;;;;0.30;0.30;;;24.10;93.20;;;;;;4838088;29;20452;-84
2023/07/22 03:20:58;;;;;;;0.35;0.35;;;24.10;93.30;;;;;;4837193;29;20206;-83
2023/07/22 03:23:26;;;;;;;0.20;0.20;;;24.10;93.50;;;;;;4835270;29;20196;-83
2023/07/22 03:25:54;;;;;;;0.63;0.63;;;24.10;93.30;;;;;;4835361;29;20225;-84
2023/07/22 03:28:25;;;;;;;0.50;0.50;;;24.10;93.50;;;;;;4833195;29;20591;-83
2023/07/22 03:30:54;;;;;;;0.15;0.15;;;24.10;93.90;;;;;;4838729;29;20195;-83
2023/07/22 03:33:22;;;;;;;0.52;0.20;;;24.00;94.00;;;;;;4836940;29;20238;-83
2023/07/22 03:35:51;;;;;;;0.73;0.32;;;24.00;94.20;;;;;;4839861;29;20210;-84
2023/07/22 03:38:21;;;;;;;0.20;0.20;;;24.00;94.60;;;;;;4839520;29;20285;-84
2023/07/22 03:40:49;;;;;;;0.90;0.73;;;24.00;94.30;;;;;;4837285;29;20215;-82
2023/07/22 03:43:18;;;;;;;0.20;0.20;;;24.00;94.50;;;;;;4839378;29;20202;-83
2023/07/22 03:45:47;;;;;;;0.40;0.30;;;24.00;94.60;;;;;;4839938;29;20632;-83
2023/07/22 03:48:16;;;;;;;0.10;0.10;;;24.00;94.60;;;;;;4838066;29;20206;-82
2023/07/22 03:50:45;;;;;;;0.20;0.20;;;24.00;94.60;;;;;;4819880;29;20206;-82
2023/07/22 03:53:14;;;;;;;1.35;1.00;;;24.00;94.30;;;;;;4837851;29;20203;-82
2023/07/22 03:55:44;;;;;;;0.30;0.25;;;24.00;94.30;;;;;;4835170;29;20203;-84
2023/07/22 03:58:12;;;;;;;1.30;0.82;;;24.00;94.50;;;;;;4835764;29;20211;-83
2023/07/22 04:00:41;;;;;;;0.43;0.43;;;24.00;94.40;;;;;;4837160;29;20210;-83
2023/07/22 04:03:10;;;;;;;0.25;0.25;;;24.00;94.50;;;;;;4821628;29;20203;-83
2023/07/22 04:05:38;;;;;;;0.20;0.20;;;24.00;94.80;;;;;;4837103;29;20688;-83
2023/07/22 04:08:07;;;;;;;0.28;0.20;;;24.10;94.70;;;;;;4840650;29;20286;-83
2023/07/22 04:10:36;;;;;;;0.45;0.40;;;24.10;94.90;;;;;;4836194;29;20257;-83
2023/07/22 04:13:07;;;;;;;4.05;1.10;;;24.10;94.90;;;;;;4838740;29;20222;-82
2023/07/22 04:15:36;;;;;;;0.28;0.28;;;24.10;94.90;;;;;;4837881;29;20207;-83
2023/07/22 04:18:04;;;;;;;4.57;0.40;;;24.20;94.70;;;;;;4838301;29;20253;-83
2023/07/22 04:20:33;;;;;;;0.20;0.20;;;24.20;94.80;;;;;;4842306;29;20249;-84
2023/07/22 04:23:02;;;;;;;3.83;1.80;;;24.20;95.00;;;;;;4823447;29;20202;-83
2023/07/22 04:25:30;;;;;;;0.25;0.25;;;24.20;95.20;;;;;;4834979;29;20635;-84
2023/07/22 04:27:59;;;;;;;0.20;0.20;;;24.20;95.10;;;;;;4840724;29;20211;-83
2023/07/22 04:30:29;;;;;;;0.40;0.40;;;24.30;94.90;;;;;;4836148;29;20666;-84
2023/07/22 04:32:57;;;;;;;0.20;0.20;;;24.30;94.80;;;;;;4834034;29;20207;-83
2023/07/22 04:35:32;;;;;;;0.10;0.10;;;24.30;95.00;;;;;;4826796;29;20221;-82
2023/07/22 04:38:00;;;;;;;0.32;0.30;;;24.30;95.00;;;;;;4835146;29;20210;-84
2023/07/22 04:40:30;;;;;;;0.20;0.20;;;24.30;95.40;;;;;;4836061;29;20207;-84
2023/07/22 04:42:58;;;;;;;0.28;0.28;;;24.30;95.60;;;;;;4840924;29;20198;-84
2023/07/22 04:45:27;;;;;;;0.38;0.38;;;24.30;95.60;;;;;;4837265;29;20202;-84
2023/07/22 04:47:57;;;;;;;0.63;0.55;;;24.40;95.70;;;;;;4836806;29;20202;-84
2023/07/22 04:50:25;;;;;;;0.75;0.63;;;24.40;95.60;;;;;;4840435;29;20583;-84
2023/07/22 04:52:56;;;;;;;0.10;0.10;;;24.40;95.60;;;;;;4836350;29;20209;-83
2023/07/22 04:55:26;;;;;;;0.20;0.20;;;24.40;95.70;;;;;;4835680;29;20214;-85
2023/07/22 04:57:54;;;;;;;0.20;0.20;;;24.40;95.60;;;;;;4820958;29;20263;-83
2023/07/22 05:00:23;;;;;;;0.15;0.15;;;24.40;95.70;;;;;;4839005;29;20647;-83
2023/07/22 05:02:55;;;;;;;0.38;0.38;;;24.40;95.70;;;;;;4833021;29;20210;-83
2023/07/22 05:05:25;;;;;;;0.35;0.32;;;24.40;95.70;;;;;;4840471;29;20206;-83
2023/07/22 05:07:54;;;;;;;0.40;0.40;;;24.40;95.60;;;;;;4838051;29;20207;-86
2023/07/22 05:10:23;;;;;;;0.20;0.20;;;24.40;95.80;;;;;;4837356;29;20698;-85
2023/07/22 05:12:52;;;;;;;0.20;0.20;;;24.40;95.70;;;;;;4836443;29;20202;-82
2023/07/22 05:15:21;;;;;;;0.25;0.25;;;24.40;95.70;;;;;;4838600;29;20586;-83
2023/07/22 05:17:50;;;;;;;0.17;0.17;;;24.50;95.60;;;;;;4833099;29;20706;-84
2023/07/22 05:20:19;;;;;;;0.68;0.20;;;24.50;95.60;;;;;;4833779;29;20211;-84
2023/07/22 05:22:49;;;;;;;0.45;0.45;;;24.50;95.50;;;;;;4827555;29;20562;-84
2023/07/22 05:25:18;;;;;;;0.47;0.47;;;24.50;95.40;;;;;;4839448;29;20527;-81
2023/07/22 05:27:47;;;;;;;1.35;0.98;;;24.50;95.30;;;;;;4836819;29;20338;-84
2023/07/22 05:30:15;;;;;;;0.40;0.40;;;24.50;95.10;;;;;;4840952;29;20225;-84
2023/07/22 05:33:02;;;;;;;0.25;0.25;;;24.60;95.10;;;;;;4834572;29;20203;-84
2023/07/22 05:35:31;;;;;;;0.20;0.20;;;24.60;95.10;;;;;;4834221;29;20237;-83
2023/07/22 05:38:03;;;;;;;0.20;0.20;;;24.70;95.10;;;;;;4829567;29;20833;-82
2023/07/22 05:40:33;;;;;;;1.85;0.82;;;24.70;95.10;;;;;;4839667;29;20211;-85
2023/07/22 05:43:01;;;;;;;0.20;0.20;;;24.80;95.00;;;;;;4838856;29;20198;-84
2023/07/22 05:45:30;;;;;;;3.83;0.55;;;24.80;95.00;;;;;;4834097;29;20214;-82
2023/07/22 05:48:02;;;;;;;7.53;1.33;;;24.90;94.80;;;;;;4825429;29;20202;-87
2023/07/22 05:50:31;;;;;;;0.22;0.22;;;25.00;94.80;;;;;;4839624;29;20211;-81
2023/07/22 05:53:02;;;;;;;0.20;0.20;;;25.00;94.70;;;;;;4822038;29;20201;-84
2023/07/22 05:55:31;;;;;;;1.10;0.95;;;25.10;94.30;;;;;;4830478;29;20218;-82
2023/07/22 05:58:05;;;;;;;0.38;0.28;;;25.10;94.10;;;;;;4835989;29;20202;-82
2023/07/22 06:00:35;;;;;;;0.40;0.40;;;25.20;93.90;;;;;;4833530;29;20199;-83
2023/07/22 06:03:04;;;;;;;0.17;0.17;;;25.20;93.70;;;;;;4827254;29;21217;-82
2023/07/22 06:05:33;;;;;;;0.20;0.20;;;25.30;93.50;;;;;;4818316;29;20195;-81
2023/07/22 06:08:05;;;;;;;0.38;0.38;;;25.30;93.50;;;;;;4833838;29;20205;-83
2023/07/22 06:10:33;;;;;;;0.57;0.43;;;25.30;93.60;;;;;;4830310;29;20234;-82
2023/07/22 06:13:02;;;;;;;2.50;1.33;;;25.40;93.90;;;;;;4830532;29;20205;-81
2023/07/22 06:15:32;;;;;;;0.45;0.40;;;25.40;93.60;;;;;;4824534;29;20241;-87
2023/07/22 06:18:00;;;;;;;1.00;0.75;;;25.50;93.60;;;;;;4836244;29;20898;-84
2023/07/22 06:20:30;;;;;;;0.28;0.20;;;25.60;93.50;;;;;;4838022;29;20223;-83
2023/07/22 06:22:58;;;;;;;0.45;0.45;;;25.60;93.40;;;;;;4830753;29;20594;-83
2023/07/22 06:25:29;;;;;;;0.65;0.57;;;25.60;93.10;;;;;;4818377;29;20215;-85
2023/07/22 06:27:57;;;;;;;0.22;0.22;;;25.70;93.00;;;;;;4837135;29;20298;-85
2023/07/22 06:30:27;;;;;;;0.30;0.30;;;25.80;92.80;;;;;;4822665;29;20210;-83
2023/07/22 06:32:56;;;;;;;0.73;0.22;;;25.80;92.50;;;;;;4838020;29;20207;-84
2023/07/22 06:35:25;;;;;;;1.23;0.35;;;25.90;92.40;;;;;;4833811;29;20250;-83
2023/07/22 06:37:54;;;;;;;0.20;0.20;;;26.00;92.30;;;;;;4835099;29;20199;-84
2023/07/22 06:40:22;;;;;;;0.55;0.35;;;26.10;92.20;;;;;;4832479;29;20211;-86
2023/07/22 06:42:52;;;;;;;0.30;0.30;;;26.10;92.20;;;;;;4836800;29;20304;-84
2023/07/22 06:45:21;;;;;;;0.40;0.40;;;26.20;92.00;;;;;;4831077;29;20210;-82
2023/07/22 06:47:49;;;;;;;0.20;0.20;;;26.30;91.80;;;;;;4831480;29;20214;-83
2023/07/22 06:50:18;;;;;;;0.77;0.70;;;26.30;91.90;;;;;;4837048;29;20221;-85
2023/07/22 06:52:47;;;;;;;1.17;0.93;;;26.40;91.80;;;;;;4835528;29;20206;-83
2023/07/22 06:55:16;;;;;;;0.20;0.20;;;26.40;91.30;;;;;;4837519;29;20261;-82
2023/07/22 06:57:45;;;;;;;0.20;0.20;;;26.50;91.20;;;;;;4834939;29;20204;-83
2023/07/22 07:00:16;;;;;;;0.50;0.50;;;26.60;91.20;;;;;;4839447;29;20198;-84
2023/07/22 07:02:48;;;;;;;0.30;0.30;;;26.70;91.40;;;;;;4838315;29;20618;-83
2023/07/22 07:05:17;;;;;;;0.30;0.30;;;26.70;91.20;;;;;;4840236;29;20616;-86
2023/07/22 07:07:46;;;;;;;4.57;0.57;;;26.70;90.90;;;;;;4831584;29;20218;-83
2023/07/22 07:10:14;;;;;;;0.73;0.50;;;26.80;90.90;;;;;;4837807;29;20658;-85
2023/07/22 07:12:43;;;;;;;0.68;0.40;;;26.80;90.80;;;;;;4839219;29;20202;-84
2023/07/22 07:15:14;;;;;;;0.57;0.30;;;26.90;90.50;;;;;;4834579;29;20222;-84
2023/07/22 07:17:42;;;;;;;0.55;0.55;;;26.90;90.00;;;;;;4833295;29;20192;-83
2023/07/22 07:20:11;;;;;;;0.20;0.20;;;27.00;90.10;;;;;;4832186;29;20570;-82
2023/07/22 07:22:40;;;;;;;0.35;0.35;;;27.00;90.10;;;;;;4836043;29;22094;-83
2023/07/22 07:25:09;;;;;;;0.32;0.22;;;27.10;90.20;;;;;;4831739;29;20663;-81
2023/07/22 07:27:40;;;;;;;0.17;0.17;;;27.10;90.10;;;;;;4829755;29;20671;-83
2023/07/22 07:30:09;;;;;;;1.13;0.75;;;27.20;90.10;;;;;;4836101;29;20285;-80
2023/07/22 07:32:40;;;;;;;0.20;0.20;;;27.20;89.80;;;;;;4830757;29;20202;-82
2023/07/22 07:35:10;;;;;;;0.40;0.40;;;27.30;89.70;;;;;;4827129;29;20655;-83
2023/07/22 07:37:38;;;;;;;0.30;0.30;;;27.40;88.50;;;;;;4831852;29;20211;-82
2023/07/22 07:40:08;;;;;;;0.77;0.32;;;27.50;87.80;;;;;;4837970;29;20202;-82
2023/07/22 07:42:36;;;;;;;2.40;0.52;;;27.60;87.60;;;;;;4835914;29;20690;-83
2023/07/22 07:45:06;;;;;;;0.30;0.22;;;27.70;86.60;;;;;;4831115;29;20226;-83
2023/07/22 07:47:34;;;;;;;6.60;0.82;;;27.70;87.80;;;;;;4835684;29;20210;-82
2023/07/22 07:50:05;;;;;;;1.00;0.90;;;27.80;86.90;;;;;;4830973;29;20236;-81
2023/07/22 07:52:35;;;;;;;0.45;0.30;;;27.90;86.30;;;;;;4838075;29;20321;-82
2023/07/22 07:55:03;;;;;;;1.55;0.52;;;28.00;83.90;;;;;;4834109;29;20205;-82
2023/07/22 07:57:32;;;;;;;0.38;0.30;;;28.10;83.80;;;;;;4830843;29;20318;-82
2023/07/22 08:00:00;;;;;;;0.57;0.57;;;28.10;83.30;;;;;;4836989;29;20203;-83
2023/07/22 08:02:29;;;;;;;0.45;0.45;;;28.20;81.60;;;;;;4838806;29;20202;-83
2023/07/22 08:04:58;;;;;;;0.45;0.45;;;28.30;80.50;;;;;;4837942;29;20230;-83
2023/07/22 08:07:28;;;;;;;1.35;0.68;;;28.30;79.20;;;;;;4831729;29;20297;-82
2023/07/22 08:09:58;;;;;;;2.78;0.43;;;28.30;78.80;;;;;;4835492;29;20775;-83
2023/07/22 08:12:26;;;;;;;0.45;0.45;;;28.40;79.70;;;;;;4830954;29;20206;-82
2023/07/22 08:14:55;;;;;;;0.40;0.40;;;28.50;79.70;;;;;;4834641;29;20198;-82
2023/07/22 08:17:23;;;;;;;0.20;0.20;;;28.50;79.30;;;;;;4833612;29;20235;-81
2023/07/22 08:19:52;;;;;;;0.20;0.20;;;28.60;79.10;;;;;;4836785;29;20211;-82
2023/07/22 08:22:20;;;;;;;0.20;0.20;;;28.70;79.00;;;;;;4835867;29;20263;-81
2023/07/22 08:24:51;;;;;;;0.40;0.40;;;28.80;78.10;;;;;;4836766;29;20206;-81
2023/07/22 08:27:19;;;;;;;0.98;0.93;;;28.80;78.70;;;;;;4834176;29;20199;-81
2023/07/22 08:29:53;;;;;;;1.13;0.57;;;28.90;78.90;;;;;;4833256;29;20575;-84
2023/07/22 08:32:22;;;;;;;0.60;0.43;;;29.00;77.10;;;;;;4836332;29;20531;-82
2023/07/22 08:34:51;;;;;;;0.25;0.25;;;29.10;77.50;;;;;;4834495;29;20647;-82
2023/07/22 08:37:19;;;;;;;0.50;0.30;;;29.10;77.60;;;;;;4835172;29;20670;-81
2023/07/22 08:39:48;;;;;;;4.95;1.38;;;29.10;77.50;;;;;;4836924;29;20198;-80
2023/07/22 08:42:20;;;;;;;0.30;0.30;;;29.20;77.80;;;;;;4832818;29;20246;-82
2023/07/22 08:44:51;;;;;;;0.50;0.50;;;29.30;77.60;;;;;;4834399;29;20201;-81
2023/07/22 08:47:22;;;;;;;2.55;1.75;;;29.30;77.40;;;;;;4837770;29;20595;-80
2023/07/22 08:49:53;;;;;;;0.47;0.47;;;29.30;76.50;;;;;;4835110;29;20203;-80
2023/07/22 08:52:23;;;;;;;0.52;0.52;;;29.30;76.40;;;;;;4834916;29;20556;-78
2023/07/22 08:54:52;;;;;;;0.77;0.40;;;29.20;76.40;;;;;;4839501;29;20207;-80
2023/07/22 08:57:25;;;;;;;0.40;0.40;;;29.30;77.00;;;;;;4837258;29;20701;-81
2023/07/22 08:59:55;;;;;;;1.20;0.77;;;29.30;77.10;;;;;;4838457;29;20217;-81
2023/07/22 09:02:25;;;;;;;2.47;0.40;;;29.40;77.70;;;;;;4835658;29;20218;-81
2023/07/22 09:04:54;;;;;;;0.45;0.43;;;29.40;78.00;;;;;;4837948;29;20281;-79
2023/07/22 09:07:22;;;;;;;0.40;0.40;;;29.40;78.30;;;;;;4831660;29;20206;-82
2023/07/22 09:09:51;;;;;;;0.38;0.38;;;29.40;76.00;;;;;;4836418;29;20235;-81
2023/07/22 09:12:22;;;;;;;0.50;0.50;;;29.50;76.20;;;;;;4838608;29;20202;-84
2023/07/22 09:14:53;;;;;;;3.03;1.13;;;29.50;75.50;;;;;;4837847;29;20211;-80
2023/07/22 09:17:21;;;;;;;0.20;0.20;;;29.60;76.40;;;;;;4831492;29;20231;-80
2023/07/22 09:19:53;;;;;;;0.25;0.25;;;29.60;76.60;;;;;;4836024;29;20721;-80
2023/07/22 09:22:27;;;;;;;0.70;0.70;;;29.60;75.30;;;;;;4833004;29;20274;-80
2023/07/22 09:25:14;;;;;;;0.40;0.40;;;29.70;75.00;;;;;;4836181;29;20198;-79
2023/07/22 09:27:43;;;;;;;0.77;0.73;;;29.60;73.80;;;;;;4834568;29;20245;-81
2023/07/22 09:30:27;;;;;;;0.20;0.20;;;29.70;74.30;;;;;;4839488;29;20209;-80
2023/07/22 09:32:57;;;;;;;0.75;0.75;;;29.70;73.70;;;;;;4834434;29;20199;-82
2023/07/22 09:35:28;;;;;;;1.40;0.73;;;29.70;73.60;;;;;;4838910;29;20202;-82
2023/07/22 09:37:57;;;;;;;0.55;0.55;;;29.70;74.20;;;;;;4839153;29;20226;-81
2023/07/22 09:40:26;;;;;;;0.60;0.60;;;29.80;73.90;;;;;;4837855;29;20195;-82
2023/07/22 09:42:57;;;;;;;2.47;0.50;;;29.80;73.70;;;;;;4836647;29;20214;-81
2023/07/22 09:45:29;;;;;;;1.38;0.95;;;29.90;73.80;;;;;;4833230;29;20203;-83
2023/07/22 09:47:59;;;;;;;0.60;0.30;;;29.90;74.10;;;;;;4827636;29;20203;-80
2023/07/22 09:50:28;;;;;;;1.25;0.85;;;29.90;73.80;;;;;;4833747;29;20226;-81
2023/07/22 09:52:59;;;;;;;0.68;0.40;;;30.00;73.60;;;;;;4836873;29;20203;-80
2023/07/22 09:55:29;;;;;;;0.55;0.32;;;30.00;74.20;;;;;;4828691;29;20299;-82
2023/07/22 09:57:59;;;;;;;0.43;0.43;;;30.10;73.80;;;;;;4833306;29;20226;-82
2023/07/22 10:00:32;;;;;;;1.42;0.65;;;30.10;72.90;;;;;;4833787;29;20224;-83
2023/07/22 10:03:02;;;;;;;0.90;0.40;;;30.10;73.00;;;;;;4836977;29;20210;-84
2023/07/22 10:05:31;;;;;;;0.30;0.30;;;30.30;73.50;;;;;;4838418;29;20293;-83
2023/07/22 10:08:00;;;;;;;0.98;0.93;;;30.30;74.00;;;;;;4838738;29;20231;-83
2023/07/22 10:10:34;;;;;;;1.13;1.02;;;30.30;73.00;;;;;;4838527;29;20234;-83
2023/07/22 10:13:04;;;;;;;1.23;0.55;;;30.30;72.30;;;;;;4841473;29;20205;-84
2023/07/22 10:15:35;;;;;;;0.20;0.20;;;30.40;72.80;;;;;;4837995;29;20230;-82
2023/07/22 10:18:05;;;;;;;0.35;0.35;;;30.50;72.80;;;;;;4838351;29;20226;-83
2023/07/22 10:20:36;;;;;;;0.85;0.63;;;30.60;73.00;;;;;;4833645;29;20301;-84
2023/07/22 10:23:05;;;;;;;0.43;0.30;;;30.60;72.80;;;;;;4836977;29;22612;-83
2023/07/22 10:25:34;;;;;;;3.28;0.88;;;30.80;72.90;;;;;;4832421;29;20289;-81
2023/07/22 10:28:04;;;;;;;0.52;0.40;;;30.80;72.00;;;;;;4837917;29;20230;-83
2023/07/22 10:30:34;;;;;;;2.10;1.27;;;30.90;70.80;;;;;;4829058;29;20202;-83
2023/07/22 10:33:03;;;;;;;0.75;0.75;;;30.90;70.70;;;;;;4838713;29;20199;-84
2023/07/22 10:35:44;;;;;;;0.30;0.30;;;31.00;70.10;;;;;;4830083;29;20209;-83
2023/07/22 10:38:13;;;;;;;1.00;0.73;;;31.10;69.70;;;;;;4832480;29;20221;-83
2023/07/22 10:40:50;;;;;;;0.30;0.30;;;31.10;68.20;;;;;;4827631;29;20656;-82
2023/07/22 10:43:19;;;;;;;0.30;0.30;;;31.20;67.60;;;;;;4831962;29;20225;-82
2023/07/22 10:45:54;;;;;;;0.20;0.20;;;31.20;67.10;;;;;;4837333;29;20286;-81
2023/07/22 10:48:26;;;;;;;0.65;0.63;;;31.40;67.30;;;;;;4838007;29;20208;-82
2023/07/22 10:51:05;;;;;;;6.78;0.50;;;31.40;67.00;;;;;;4837610;29;20199;-84
2023/07/22 10:53:34;;;;;;;0.28;0.28;;;31.50;67.50;;;;;;4838074;29;20229;-81
2023/07/22 10:56:16;;;;;;;0.57;0.55;;;31.60;67.50;;;;;;4837523;29;20750;-82
2023/07/22 10:59:00;;;;;;;0.20;0.20;;;31.60;67.00;;;;;;4834454;29;20219;-83
2023/07/22 11:01:38;;;;;;;0.30;0.30;;;31.70;67.30;;;;;;4828551;29;20564;-82
2023/07/22 11:04:30;;;;;;;0.75;0.70;;;31.80;67.20;;;;;;4831818;29;20198;-81
2023/07/22 11:07:10;;;;;;;4.32;0.77;;;31.90;66.10;;;;;;4827057;29;20699;-83
2023/07/22 11:09:43;;;;;;;0.25;0.25;;;31.80;65.90;;;;;;4833982;29;20298;-84
2023/07/22 11:12:17;;;;;;;1.27;0.82;;;31.90;65.50;;;;;;4832071;29;20202;-80
2023/07/22 11:14:50;;;;;;;0.43;0.43;;;32.00;65.80;;;;;;4838220;29;20230;-81
2023/07/22 11:17:29;;;;;;;2.17;0.73;;;32.00;65.60;;;;;;4828242;29;20207;-80
2023/07/22 11:19:58;;;;;;;1.27;1.15;;;32.10;65.20;;;;;;4833398;29;20295;-80
2023/07/22 11:22:29;;;;;;;0.30;0.30;;;32.20;64.90;;;;;;4833830;29;20198;-82
2023/07/22 11:24:58;;;;;;;0.20;0.20;;;32.20;64.20;;;;;;4829957;29;20227;-81
2023/07/22 11:27:27;;;;;;;0.43;0.43;;;32.30;64.40;;;;;;4833183;29;20297;-80
2023/07/22 11:29:59;;;;;;;1.13;0.57;;;32.40;64.40;;;;;;4824673;29;20211;-81
2023/07/22 11:32:29;;;;;;;3.40;1.20;;;32.50;65.60;;;;;;4825925;29;20187;-84
2023/07/22 11:34:58;;;;;;;0.30;0.30;;;32.60;64.20;;;;;;4833819;29;20198;-86
2023/07/22 11:37:28;;;;;;;4.35;1.42;;;32.60;63.30;;;;;;4827285;29;20642;-84
2023/07/22 11:40:00;;;;;;;0.30;0.30;;;32.60;63.60;;;;;;4828681;29;20534;-84
2023/07/22 11:42:30;;;;;;;0.47;0.40;;;32.70;64.00;;;;;;4832818;29;20665;-82
2023/07/22 11:44:59;;;;;;;0.73;0.40;;;32.80;62.10;;;;;;4835309;29;20202;-85
2023/07/22 11:47:32;;;;;;;1.45;0.55;;;32.90;61.50;;;;;;4832150;29;20199;-82
2023/07/22 11:50:01;;;;;;;0.28;0.28;;;32.90;60.80;;;;;;4831642;29;20337;-83
2023/07/22 11:52:29;;;;;;;0.47;0.43;;;33.00;60.50;;;;;;4833075;29;20264;-82
2023/07/22 11:55:03;;;;;;;0.75;0.63;;;33.10;60.00;;;;;;4831271;29;20207;-82
2023/07/22 11:57:31;;;;;;;0.40;0.32;;;33.10;60.20;;;;;;4834515;29;20286;-83
2023/07/22 11:59:59;;;;;;;0.30;0.30;;;33.10;58.90;;;;;;4837952;29;20655;-82
2023/07/22 12:02:31;;;;;;;3.78;0.80;;;33.20;58.60;;;;;;4831083;29;20207;-83
2023/07/22 12:05:03;;;;;;;0.20;0.20;;;33.20;59.00;;;;;;4832216;29;20210;-85
2023/07/22 12:07:32;;;;;;;5.93;0.55;;;33.30;59.60;;;;;;4834286;29;20648;-82
2023/07/22 12:10:05;;;;;;;0.32;0.32;;;33.40;59.70;;;;;;4836372;29;20272;-85
2023/07/22 12:12:34;;;;;;;0.95;0.82;;;33.40;60.20;;;;;;4837265;29;20214;-84
2023/07/22 12:15:06;;;;;;;0.77;0.38;;;33.50;60.10;;;;;;4835877;29;20222;-84
2023/07/22 12:17:48;;;;;;;0.30;0.30;;;33.60;59.40;;;;;;4835429;29;20660;-83
2023/07/22 12:20:19;;;;;;;0.50;0.50;;;33.60;58.40;;;;;;4834340;29;20206;-85
2023/07/22 12:22:47;;;;;;;0.17;0.17;;;33.70;57.90;;;;;;4836444;29;20651;-80
2023/07/22 12:25:16;;;;;;;0.60;0.60;;;33.80;58.30;;;;;;4840239;29;20230;-84
2023/07/22 12:27:45;;;;;;;0.15;0.15;;;33.80;57.30;;;;;;4827119;29;20211;-84
2023/07/22 12:30:13;;;;;;;0.60;0.60;;;33.80;57.00;;;;;;4839717;29;20217;-85
2023/07/22 12:32:46;;;;;;;6.13;0.50;;;33.90;57.10;;;;;;4834721;29;20216;-81
2023/07/22 12:35:14;;;;;;;0.20;0.20;;;33.90;56.20;;;;;;4837268;29;20225;-82
2023/07/22 12:37:45;;;;;;;0.30;0.30;;;34.00;56.20;;;;;;4834206;29;20298;-84
2023/07/22 12:40:13;;;;;;;1.45;0.85;;;34.10;56.10;;;;;;4836930;29;20214;-84
2023/07/22 12:42:42;;;;;;;0.22;0.22;;;34.10;56.30;;;;;;4835865;29;20289;-85
2023/07/22 12:45:11;;;;;;;0.90;0.73;;;34.10;56.30;;;;;;4838516;29;20288;-83
2023/07/22 12:47:45;;;;;;;0.20;0.20;;;34.20;55.80;;;;;;4834558;29;20230;-83
2023/07/22 12:50:14;;;;;;;1.35;0.55;;;34.30;55.20;;;;;;4832183;29;20209;-84
2023/07/22 12:52:44;;;;;;;0.30;0.30;;;34.40;55.60;;;;;;4833961;29;20206;-84
2023/07/22 12:55:12;;;;;;;0.50;0.50;;;34.40;55.40;;;;;;4835530;29;20198;-83
2023/07/22 12:57:40;;;;;;;6.55;1.02;;;34.50;54.80;;;;;;4828257;29;20207;-84
2023/07/22 13:00:10;;;;;;;0.40;0.30;;;34.50;53.50;;;;;;4835719;29;20226;-84
2023/07/22 13:02:39;;;;;;;1.60;0.60;;;34.50;52.10;;;;;;4832887;29;20567;-84